Time;durP1;ratioP1;P1;durP2;ratioP2;P2;SDS_P1;SDS_P2;PMS_P1;PMS_P2;Temp;Humidity;BMP_temperature;BMP_pressure;BME280_temperature;BME280_humidity;BME280_pressure;Samples;Min_cycle;Max_cycle;Signal;HPM_P1;HPM_P2
2022/03/24 00:01:25;;;;;;;;;;;16.20;51.80;;;;;;5100634;28;19930;-67
2022/03/24 00:03:51;;;;;;;;;;;16.20;51.80;;;;;;5115990;28;19924;-67
2022/03/24 00:06:18;;;;;;;;;;;16.20;51.80;;;;;;5116003;28;19930;-68
2022/03/24 00:08:46;;;;;;;;;;;16.20;51.80;;;;;;5116571;28;20012;-68
2022/03/24 00:11:13;;;;;;;;;;;16.20;51.80;;;;;;5115958;28;19924;-68
2022/03/24 00:13:40;;;;;;;;;;;16.20;51.90;;;;;;5115681;28;19924;-67
2022/03/24 00:16:07;;;;;;;;;;;16.20;51.90;;;;;;5115933;28;19937;-68
2022/03/24 00:18:34;;;;;;;;;;;16.20;51.80;;;;;;5113035;28;20437;-68
2022/03/24 00:21:01;;;;;;;;;;;16.10;51.80;;;;;;5115826;28;19924;-68
2022/03/24 00:23:28;;;;;;;;;;;16.10;51.80;;;;;;5115465;28;19924;-67
2022/03/24 00:25:56;;;;;;;;;;;16.10;51.80;;;;;;5116059;28;19934;-67
2022/03/24 00:28:23;;;;;;;;;;;16.10;51.80;;;;;;5116010;28;19924;-68
2022/03/24 00:30:49;;;;;;;;;;;16.10;51.80;;;;;;5115423;28;20437;-67
2022/03/24 00:33:16;;;;;;;;;;;16.10;51.90;;;;;;5114039;28;19924;-67
2022/03/24 00:35:43;;;;;;;;;;;16.10;51.90;;;;;;5115591;28;19934;-68
2022/03/24 00:38:09;;;;;;;;;;;16.10;51.90;;;;;;5114407;28;20300;-67
2022/03/24 00:40:36;;;;;;;;;;;16.10;51.90;;;;;;5115437;28;20327;-67
2022/03/24 00:43:05;;;;;;;;;;;16.10;51.90;;;;;;5115238;28;19934;-67
2022/03/24 00:45:31;;;;;;;;;;;16.00;51.90;;;;;;5114030;28;19976;-67
2022/03/24 00:47:58;;;;;;;;;;;16.10;51.90;;;;;;5115201;28;19924;-66
2022/03/24 00:50:25;;;;;;;;;;;16.10;51.90;;;;;;5113445;28;19928;-68
2022/03/24 00:52:51;;;;;;;;;;;16.10;51.90;;;;;;5115061;28;19924;-68
2022/03/24 00:55:19;;;;;;;;;;;16.10;51.90;;;;;;5115223;28;19946;-68
2022/03/24 00:57:46;;;;;;;;;;;16.00;51.80;;;;;;5114963;28;19934;-68
2022/03/24 01:00:15;;;;;;;;;;;16.10;51.90;;;;;;5114918;28;19930;-67
2022/03/24 01:02:41;;;;;;;;;;;16.10;51.90;;;;;;5113436;28;19931;-68
2022/03/24 01:05:08;;;;;;;;;;;16.10;51.90;;;;;;5115209;28;19930;-68
2022/03/24 01:07:35;;;;;;;;;;;16.10;51.80;;;;;;5113489;28;19928;-67
2022/03/24 01:10:02;;;;;;;;;;;16.10;51.80;;;;;;5114900;28;20014;-68
2022/03/24 01:12:29;;;;;;;;;;;16.10;51.70;;;;;;5114467;28;19930;-66
2022/03/24 01:14:56;;;;;;;;;;;16.10;51.80;;;;;;5114889;28;19932;-67
2022/03/24 01:17:26;;;;;;;;;;;16.10;51.70;;;;;;5114945;28;19931;-67
2022/03/24 01:19:52;;;;;;;;;;;16.10;51.70;;;;;;5114635;28;19923;-67
2022/03/24 01:22:19;;;;;;;;;;;16.10;51.70;;;;;;5114175;28;19924;-68
2022/03/24 01:24:45;;;;;;;;;;;16.10;51.60;;;;;;5112783;28;20394;-68
2022/03/24 01:27:14;;;;;;;;;;;16.10;51.60;;;;;;5114613;28;20303;-67
2022/03/24 01:29:41;;;;;;;;;;;16.10;51.60;;;;;;5114426;28;19923;-67
2022/03/24 01:32:08;;;;;;;;;;;16.10;51.60;;;;;;5114489;28;19924;-67
2022/03/24 01:34:36;;;;;;;;;;;16.00;51.50;;;;;;5114203;28;19924;-67
2022/03/24 01:37:03;;;;;;;;;;;16.00;51.50;;;;;;5113319;28;20310;-67
2022/03/24 01:39:30;;;;;;;;;;;16.00;51.50;;;;;;5113948;28;20006;-67
2022/03/24 01:41:56;;;;;;;;;;;16.00;51.50;;;;;;5113435;28;19934;-67
2022/03/24 01:44:23;;;;;;;;;;;16.00;51.50;;;;;;5114107;28;19924;-68
2022/03/24 01:46:57;;;;;;;;;;;16.00;51.50;;;;;;5114076;28;20330;-67
2022/03/24 01:49:25;;;;;;;;;;;16.00;51.50;;;;;;5113489;28;19923;-67
2022/03/24 01:51:52;;;;;;;;;;;16.00;51.50;;;;;;5114164;28;19930;-68
2022/03/24 01:54:20;;;;;;;;;;;16.00;51.50;;;;;;5112923;28;20011;-67
2022/03/24 01:56:48;;;;;;;;;;;16.00;51.50;;;;;;5111888;28;19924;-67
2022/03/24 01:59:16;;;;;;;;;;;16.00;51.60;;;;;;5114158;28;19928;-68
2022/03/24 02:01:43;;;;;;;;;;;16.00;51.60;;;;;;5113875;28;19924;-68
2022/03/24 02:04:09;;;;;;;;;;;15.90;51.40;;;;;;5113219;28;19931;-67
2022/03/24 02:06:36;;;;;;;;;;;15.90;51.50;;;;;;5112633;28;19927;-66
2022/03/24 02:09:04;;;;;;;;;;;15.90;51.50;;;;;;5113841;28;19934;-67
2022/03/24 02:11:31;;;;;;;;;;;15.90;51.50;;;;;;5113881;28;19930;-67
2022/03/24 02:13:57;;;;;;;;;;;15.90;51.50;;;;;;5111791;28;20392;-67
2022/03/24 02:16:27;;;;;;;;;;;15.90;51.50;;;;;;5113680;28;20269;-67
2022/03/24 02:18:59;;;;;;;;;;;15.90;51.50;;;;;;5113621;28;19924;-68
2022/03/24 02:21:25;;;;;;;;;;;15.90;51.50;;;;;;5113663;28;19931;-67
2022/03/24 02:23:53;;;;;;;;;;;15.90;51.50;;;;;;5113272;28;19930;-68
2022/03/24 02:26:20;;;;;;;;;;;15.90;51.50;;;;;;5113333;28;19924;-68
2022/03/24 02:28:46;;;;;;;;;;;15.90;51.50;;;;;;5113440;28;19924;-68
2022/03/24 02:31:15;;;;;;;;;;;15.90;51.60;;;;;;5110665;28;21234;-67
2022/03/24 02:33:41;;;;;;;;;;;15.90;51.50;;;;;;5113115;28;20011;-68
2022/03/24 02:36:09;;;;;;;;;;;15.90;51.40;;;;;;5113240;28;19930;-67
2022/03/24 02:38:35;;;;;;;;;;;15.90;51.50;;;;;;5113194;28;19923;-67
2022/03/24 02:41:04;;;;;;;;;;;15.90;51.50;;;;;;5113221;28;19923;-68
2022/03/24 02:43:30;;;;;;;;;;;16.00;51.60;;;;;;5111984;28;19963;-68
2022/03/24 02:45:57;;;;;;;;;;;15.90;51.60;;;;;;5111615;28;19932;-66
2022/03/24 02:48:24;;;;;;;;;;;16.00;51.60;;;;;;5113073;28;20381;-68
2022/03/24 02:50:51;;;;;;;;;;;16.00;51.60;;;;;;5112762;28;19924;-67
2022/03/24 02:53:18;;;;;;;;;;;16.00;51.60;;;;;;5112928;28;19934;-67
2022/03/24 02:55:45;;;;;;;;;;;16.00;51.50;;;;;;5113170;28;19974;-68
2022/03/24 02:58:13;;;;;;;;;;;16.00;51.60;;;;;;5111974;28;19928;-66
2022/03/24 03:00:39;;;;;;;;;;;16.00;51.60;;;;;;5103921;28;19966;-67
2022/03/24 03:03:06;;;;;;;;;;;16.10;51.60;;;;;;5092536;28;19931;-68
2022/03/24 03:05:35;;;;;;;;;;;15.90;51.40;;;;;;5092699;28;19924;-68
2022/03/24 03:08:02;;;;;;;;;;;16.00;51.50;;;;;;5092455;28;19924;-66
2022/03/24 03:10:28;;;;;;;;;;;16.10;51.50;;;;;;5092853;28;19924;-67
2022/03/24 03:12:55;;;;;;;;;;;16.10;51.50;;;;;;5092383;28;19924;-68
2022/03/24 03:15:23;;;;;;;;;;;16.10;51.40;;;;;;5092690;28;19928;-68
2022/03/24 03:17:49;;;;;;;;;;;16.10;51.40;;;;;;5107437;28;19923;-67
2022/03/24 03:20:16;;;;;;;;;;;16.10;51.40;;;;;;5112465;28;20273;-66
2022/03/24 03:22:42;;;;;;;;;;;16.10;51.40;;;;;;5092255;28;20273;-67
2022/03/24 03:25:10;;;;;;;;;;;16.10;51.40;;;;;;5092602;28;20320;-68
2022/03/24 03:27:36;;;;;;;;;;;16.10;51.30;;;;;;5092421;28;19966;-67
2022/03/24 03:30:03;;;;;;;;;;;16.10;51.40;;;;;;5092150;28;19934;-67
2022/03/24 03:32:31;;;;;;;;;;;16.10;51.40;;;;;;5091764;28;19924;-67
2022/03/24 03:34:58;;;;;;;;;;;16.10;51.40;;;;;;5107148;28;20380;-68
2022/03/24 03:37:25;;;;;;;;;;;16.10;51.30;;;;;;5092510;28;19931;-67
2022/03/24 03:39:52;;;;;;;;;;;16.10;51.30;;;;;;5092431;28;19930;-68
2022/03/24 03:42:19;;;;;;;;;;;16.10;51.30;;;;;;5092132;28;20338;-68
2022/03/24 03:44:46;;;;;;;;;;;16.10;51.30;;;;;;5092105;28;19960;-68
2022/03/24 03:47:13;;;;;;;;;;;16.10;51.20;;;;;;5092036;28;19923;-68
2022/03/24 03:49:41;;;;;;;;;;;16.10;51.20;;;;;;5092144;28;20292;-67
2022/03/24 03:52:08;;;;;;;;;;;16.10;51.20;;;;;;5092016;28;19928;-67
2022/03/24 03:54:34;;;;;;;;;;;16.10;51.20;;;;;;5091976;28;19924;-68
2022/03/24 03:57:02;;;;;;;;;;;16.10;51.10;;;;;;5092072;28;19944;-67
2022/03/24 03:59:28;;;;;;;;;;;16.10;51.20;;;;;;5092213;28;20014;-67
2022/03/24 04:01:57;;;;;;;;;;;16.10;51.20;;;;;;5091900;28;19924;-68
2022/03/24 04:04:24;;;;;;;;;;;16.10;51.20;;;;;;5091738;28;19924;-67
2022/03/24 04:06:52;;;;;;;;;;;16.10;51.20;;;;;;5091588;28;19924;-68
2022/03/24 04:09:19;;;;;;;;;;;16.00;51.20;;;;;;5091984;28;20394;-68
2022/03/24 04:11:46;;;;;;;;;;;16.10;51.20;;;;;;5092245;28;19924;-68
2022/03/24 04:14:13;;;;;;;;;;;16.00;51.20;;;;;;5095330;28;20388;-67
2022/03/24 04:16:40;;;;;;;;;;;16.00;51.20;;;;;;5095319;28;20373;-68
2022/03/24 04:19:07;;;;;;;;;;;16.00;51.20;;;;;;5095889;28;19946;-68
2022/03/24 04:21:34;;;;;;;;;;;16.00;51.20;;;;;;5095477;28;19970;-67
2022/03/24 04:24:03;;;;;;;;;;;16.00;51.10;;;;;;5103889;28;19930;-67
2022/03/24 04:26:29;;;;;;;;;;;16.00;51.10;;;;;;5115693;28;19947;-67
2022/03/24 04:28:56;;;;;;;;;;;16.00;51.20;;;;;;5114463;28;20047;-67
2022/03/24 04:31:23;;;;;;;;;;;16.00;51.20;;;;;;5115805;28;19930;-68
2022/03/24 04:33:49;;;;;;;;;;;16.00;51.20;;;;;;5115736;28;19947;-68
2022/03/24 04:36:16;;;;;;;;;;;16.00;51.20;;;;;;5114311;28;19930;-67
2022/03/24 04:38:42;;;;;;;;;;;16.00;51.10;;;;;;5115564;28;19930;-68
2022/03/24 04:41:11;;;;;;;;;;;16.00;51.10;;;;;;5113649;28;19924;-67
2022/03/24 04:43:37;;;;;;;;;;;16.00;51.00;;;;;;5115580;28;19951;-68
2022/03/24 04:46:08;;;;;;;;;;;16.00;51.20;;;;;;5115163;28;19930;-68
2022/03/24 04:48:36;;;;;;;;;;;16.00;51.20;;;;;;5115648;28;19946;-67
2022/03/24 04:51:04;;;;;;;;;;;16.00;51.20;;;;;;5113839;28;19932;-67
2022/03/24 04:53:31;;;;;;;;;;;16.00;51.30;;;;;;5115006;28;19924;-68
2022/03/24 04:55:57;;;;;;;;;;;16.00;51.20;;;;;;5114655;28;19930;-67
2022/03/24 04:58:25;;;;;;;;;;;16.00;51.10;;;;;;5094526;28;19960;-67
2022/03/24 05:00:52;;;;;;;;;;;16.00;51.20;;;;;;5094784;28;20011;-68
2022/03/24 05:03:19;;;;;;;;;;;15.90;51.10;;;;;;5094902;28;19943;-66
2022/03/24 05:05:46;;;;;;;;;;;15.90;51.10;;;;;;5094500;28;19924;-68
2022/03/24 05:08:12;;;;;;;;;;;16.00;51.20;;;;;;5093551;28;20006;-68
2022/03/24 05:10:39;;;;;;;;;;;16.00;51.10;;;;;;5094606;28;19932;-67
2022/03/24 05:13:06;;;;;;;;;;;16.00;51.10;;;;;;5094173;28;19924;-67
2022/03/24 05:15:34;;;;;;;;;;;16.00;51.10;;;;;;5094618;28;20002;-67
2022/03/24 05:18:01;;;;;;;;;;;16.00;51.10;;;;;;5094562;28;20006;-68
2022/03/24 05:20:27;;;;;;;;;;;16.00;51.10;;;;;;5094592;28;19931;-66
2022/03/24 05:22:54;;;;;;;;;;;16.00;51.10;;;;;;5093913;28;19933;-68
2022/03/24 05:25:20;;;;;;;;;;;15.90;51.00;;;;;;5093665;28;19924;-68
2022/03/24 05:27:47;;;;;;;;;;;15.90;50.90;;;;;;5094336;28;19931;-67
2022/03/24 05:30:13;;;;;;;;;;;15.90;51.00;;;;;;5094203;28;19924;-68
2022/03/24 05:32:42;;;;;;;;;;;15.90;51.00;;;;;;5094142;28;19924;-68
2022/03/24 05:35:09;;;;;;;;;;;15.90;51.00;;;;;;5093943;28;19935;-68
2022/03/24 05:37:35;;;;;;;;;;;15.90;51.00;;;;;;5094144;28;19930;-68
2022/03/24 05:40:02;;;;;;;;;;;15.90;51.00;;;;;;5092793;28;19924;-67
2022/03/24 05:42:28;;;;;;;;;;;15.90;51.00;;;;;;5093832;28;19928;-67
2022/03/24 05:44:55;;;;;;;;;;;15.90;51.00;;;;;;5093783;28;19931;-68
2022/03/24 05:47:22;;;;;;;;;;;15.90;51.00;;;;;;5094110;28;19924;-68
2022/03/24 05:49:51;;;;;;;;;;;15.90;51.00;;;;;;5093461;28;19928;-68
2022/03/24 05:52:17;;;;;;;;;;;15.90;51.00;;;;;;5093550;28;20342;-68
2022/03/24 05:54:44;;;;;;;;;;;15.90;51.00;;;;;;5093681;28;19924;-68
2022/03/24 05:57:11;;;;;;;;;;;15.90;51.00;;;;;;5093716;28;19931;-68
2022/03/24 05:59:38;;;;;;;;;;;15.90;50.90;;;;;;5093496;28;19931;-68
2022/03/24 06:02:04;;;;;;;;;;;15.90;50.90;;;;;;5093514;28;19930;-68
2022/03/24 06:04:31;;;;;;;;;;;15.90;51.00;;;;;;5094618;28;19932;-68
2022/03/24 06:07:01;;;;;;;;;;;15.90;51.00;;;;;;5110309;28;19931;-68
2022/03/24 06:09:27;;;;;;;;;;;15.90;50.90;;;;;;5114055;28;20006;-68
2022/03/24 06:11:55;;;;;;;;;;;15.90;50.80;;;;;;5113634;28;19935;-68
2022/03/24 06:14:21;;;;;;;;;;;15.90;50.80;;;;;;5113276;28;20383;-68
2022/03/24 06:16:49;;;;;;;;;;;15.90;50.80;;;;;;5113647;28;20373;-68
2022/03/24 06:19:15;;;;;;;;;;;15.90;50.90;;;;;;5113679;28;19931;-68
2022/03/24 06:21:42;;;;;;;;;;;15.90;50.90;;;;;;5112264;28;19924;-68
2022/03/24 06:24:10;;;;;;;;;;;15.90;50.80;;;;;;5113029;28;19924;-68
2022/03/24 06:26:37;;;;;;;;;;;15.90;50.80;;;;;;5113549;28;19924;-68
2022/03/24 06:29:04;;;;;;;;;;;15.90;50.80;;;;;;5113627;28;20014;-68
2022/03/24 06:31:32;;;;;;;;;;;15.90;50.70;;;;;;5113374;28;19924;-68
2022/03/24 06:33:59;;;;;;;;;;;15.90;50.70;;;;;;5113208;28;20019;-68
2022/03/24 06:36:28;;;;;;;;;;;15.90;50.60;;;;;;5113305;28;20295;-68
2022/03/24 06:38:55;;;;;;;;;;;15.90;50.70;;;;;;5094323;28;20119;-68
2022/03/24 06:41:24;;;;;;;;;;;15.90;50.70;;;;;;5092911;28;20023;-67
2022/03/24 06:43:50;;;;;;;;;;;15.90;50.70;;;;;;5092614;28;19959;-67
2022/03/24 06:46:17;;;;;;;;;;;15.90;50.70;;;;;;5093175;28;19924;-68
2022/03/24 06:48:44;;;;;;;;;;;15.90;50.70;;;;;;5092947;28;19924;-67
2022/03/24 06:51:11;;;;;;;;;;;16.00;50.70;;;;;;5092745;28;20007;-68
2022/03/24 06:53:37;;;;;;;;;;;16.00;50.50;;;;;;5093840;28;19974;-68
2022/03/24 06:56:05;;;;;;;;;;;16.10;50.50;;;;;;5092288;28;20444;-67
2022/03/24 06:58:33;;;;;;;;;;;16.10;50.50;;;;;;5092697;28;20376;-68
2022/03/24 07:00:59;;;;;;;;;;;16.10;50.50;;;;;;5092977;28;19954;-68
2022/03/24 07:03:26;;;;;;;;;;;16.10;50.50;;;;;;5092663;28;19924;-66
2022/03/24 07:05:52;;;;;;;;;;;16.10;50.40;;;;;;5092594;28;19924;-68
2022/03/24 07:08:19;;;;;;;;;;;16.10;50.40;;;;;;5092491;28;20404;-68
2022/03/24 07:10:46;;;;;;;;;;;16.10;50.50;;;;;;5093612;28;20369;-68
2022/03/24 07:13:12;;;;;;;;;;;16.10;50.40;;;;;;5092222;28;20392;-66
2022/03/24 07:15:40;;;;;;;;;;;16.10;50.50;;;;;;5091466;28;20019;-68
2022/03/24 07:18:07;;;;;;;;;;;16.10;50.40;;;;;;5092559;28;19931;-68
2022/03/24 07:20:34;;;;;;;;;;;16.10;50.40;;;;;;5092478;28;19931;-68
2022/03/24 07:23:03;;;;;;;;;;;16.10;50.40;;;;;;5092255;28;19931;-67
2022/03/24 07:25:29;;;;;;;;;;;16.10;50.40;;;;;;5092625;28;20349;-68
2022/03/24 07:27:56;;;;;;;;;;;16.10;50.40;;;;;;5093357;28;19924;-68
2022/03/24 07:30:22;;;;;;;;;;;16.10;50.40;;;;;;5092313;28;19927;-68
2022/03/24 07:32:50;;;;;;;;;;;16.10;50.40;;;;;;5092133;28;19928;-68
2022/03/24 07:35:18;;;;;;;;;;;16.10;50.30;;;;;;5092459;28;19924;-66
2022/03/24 07:37:45;;;;;;;;;;;16.10;50.30;;;;;;5090956;28;19928;-68
2022/03/24 07:40:11;;;;;;;;;;;16.20;50.30;;;;;;5092692;28;20011;-67
2022/03/24 07:42:39;;;;;;;;;;;16.20;50.90;;;;;;5091939;28;19931;-68
2022/03/24 07:45:06;;;;;;;;;;;16.20;50.30;;;;;;5093493;28;20011;-68
2022/03/24 07:47:33;;;;;;;;;;;16.20;50.30;;;;;;5093484;28;19931;-68
2022/03/24 07:50:01;;;;;;;;;;;16.20;50.30;;;;;;5096394;28;19964;-67
2022/03/24 07:52:28;;;;;;;;;;;16.20;50.30;;;;;;5095785;28;19930;-66
2022/03/24 07:54:58;;;;;;;;;;;16.20;50.20;;;;;;5095926;28;19931;-68
2022/03/24 07:57:27;;;;;;;;;;;16.30;50.30;;;;;;5095887;28;19928;-68
2022/03/24 07:59:53;;;;;;;;;;;16.30;50.30;;;;;;5096135;28;19924;-66
2022/03/24 08:02:20;;;;;;;;;;;16.30;50.30;;;;;;5096659;28;19928;-67
2022/03/24 08:04:47;;;;;;;;;;;16.30;50.40;;;;;;5094726;28;20373;-68
2022/03/24 08:07:15;;;;;;;;;;;16.30;50.30;;;;;;5094426;28;19932;-67
2022/03/24 08:09:41;;;;;;;;;;;16.30;50.30;;;;;;5095836;28;19924;-68
2022/03/24 08:12:09;;;;;;;;;;;16.30;50.30;;;;;;5095789;28;19924;-68
2022/03/24 08:14:36;;;;;;;;;;;16.30;50.20;;;;;;5095975;28;19924;-67
2022/03/24 08:17:02;;;;;;;;;;;16.30;50.30;;;;;;5095755;28;19928;-68
2022/03/24 08:19:29;;;;;;;;;;;16.40;50.30;;;;;;5102807;28;19934;-68
2022/03/24 08:21:55;;;;;;;;;;;16.40;50.30;;;;;;5104588;28;19930;-67
2022/03/24 08:24:24;;;;;;;;;;;16.40;50.30;;;;;;5103521;28;19923;-67
2022/03/24 08:26:50;;;;;;;;;;;16.50;50.40;;;;;;5093887;28;19930;-67
2022/03/24 08:29:17;;;;;;;;;;;16.50;50.40;;;;;;5094350;28;19931;-66
2022/03/24 08:31:44;;;;;;;;;;;16.50;50.40;;;;;;5094976;28;19931;-67
2022/03/24 08:34:10;;;;;;;;;;;16.50;50.30;;;;;;5094743;28;19928;-67
2022/03/24 08:36:37;;;;;;;;;;;16.60;50.30;;;;;;5094883;28;19964;-69
2022/03/24 08:39:04;;;;;;;;;;;16.60;50.30;;;;;;5095386;28;19974;-68
2022/03/24 08:41:32;;;;;;;;;;;16.70;50.30;;;;;;5095247;28;19932;-67
2022/03/24 08:43:58;;;;;;;;;;;16.70;50.20;;;;;;5094568;28;20391;-68
2022/03/24 08:46:26;;;;;;;;;;;16.70;50.20;;;;;;5106844;28;20414;-67
2022/03/24 08:48:53;;;;;;;;;;;16.80;50.20;;;;;;5094966;28;20009;-66
2022/03/24 08:51:19;;;;;;;;;;;16.80;50.20;;;;;;5101849;28;19942;-68
2022/03/24 08:53:47;;;;;;;;;;;16.80;50.10;;;;;;5115160;28;19924;-68
2022/03/24 08:56:13;;;;;;;;;;;16.90;50.10;;;;;;5115120;28;19930;-67
2022/03/24 08:58:41;;;;;;;;;;;16.90;50.10;;;;;;5113971;28;20415;-68
2022/03/24 09:01:09;;;;;;;;;;;16.90;50.00;;;;;;5115146;28;19924;-68
2022/03/24 09:03:36;;;;;;;;;;;16.90;50.00;;;;;;5095462;28;19924;-67
2022/03/24 09:06:02;;;;;;;;;;;17.00;50.00;;;;;;5094800;28;19928;-68
2022/03/24 09:08:29;;;;;;;;;;;17.00;49.90;;;;;;5094766;28;19956;-68
2022/03/24 09:10:55;;;;;;;;;;;17.00;50.00;;;;;;5100076;28;19977;-67
2022/03/24 09:13:22;;;;;;;;;;;17.00;49.90;;;;;;5103901;28;19924;-67
2022/03/24 09:15:50;;;;;;;;;;;17.00;49.90;;;;;;5104056;28;19931;-67
2022/03/24 09:18:17;;;;;;;;;;;17.10;49.90;;;;;;5105210;28;19924;-67
2022/03/24 09:20:44;;;;;;;;;;;17.10;49.90;;;;;;5103576;28;20376;-66
2022/03/24 09:23:11;;;;;;;;;;;17.10;49.80;;;;;;5102361;28;19988;-67
2022/03/24 09:25:40;;;;;;;;;;;17.10;49.80;;;;;;5103102;28;19946;-67
2022/03/24 09:28:07;;;;;;;;;;;17.20;49.80;;;;;;5101488;28;19931;-67
2022/03/24 09:30:33;;;;;;;;;;;17.20;49.80;;;;;;5094382;28;19931;-68
2022/03/24 09:33:01;;;;;;;;;;;17.20;49.70;;;;;;5110881;28;19928;-67
2022/03/24 09:35:28;;;;;;;;;;;17.20;49.70;;;;;;5114214;28;19924;-68
2022/03/24 09:37:55;;;;;;;;;;;17.30;49.70;;;;;;5114721;28;20363;-67
2022/03/24 09:40:21;;;;;;;;;;;17.20;49.70;;;;;;5114241;28;20295;-68
2022/03/24 09:42:48;;;;;;;;;;;17.20;49.60;;;;;;5114084;28;19939;-66
2022/03/24 09:45:15;;;;;;;;;;;17.30;49.70;;;;;;5096391;28;19924;-67
2022/03/24 09:47:41;;;;;;;;;;;17.30;49.60;;;;;;5093581;28;19924;-68
2022/03/24 09:50:10;;;;;;;;;;;17.30;49.60;;;;;;5093942;28;19931;-67
2022/03/24 09:52:36;;;;;;;;;;;17.30;49.60;;;;;;5093746;28;19933;-67
2022/03/24 09:55:03;;;;;;;;;;;17.30;49.60;;;;;;5099679;28;19934;-68
2022/03/24 09:57:30;;;;;;;;;;;17.40;49.60;;;;;;5105014;28;19928;-67
2022/03/24 09:59:57;;;;;;;;;;;17.40;49.60;;;;;;5101895;28;20390;-66
2022/03/24 10:02:24;;;;;;;;;;;17.50;49.60;;;;;;5104477;28;20406;-66
2022/03/24 10:04:50;;;;;;;;;;;17.40;49.50;;;;;;5106650;28;19928;-65
2022/03/24 10:07:19;;;;;;;;;;;17.40;49.50;;;;;;5104688;28;19923;-65
2022/03/24 10:09:46;;;;;;;;;;;17.50;49.50;;;;;;5103126;28;20010;-65
2022/03/24 10:12:19;;;;;;;;;;;17.50;49.50;;;;;;5102723;28;19930;-65
2022/03/24 10:14:46;;;;;;;;;;;17.60;49.40;;;;;;5111107;28;19924;-65
2022/03/24 10:17:12;;;;;;;;;;;17.90;49.60;;;;;;5112007;28;19924;-64
2022/03/24 10:19:39;;;;;;;;;;;17.60;49.40;;;;;;5099528;28;19925;-66
2022/03/24 10:22:09;;;;;;;;;;;17.60;49.30;;;;;;5101162;28;19924;-65
2022/03/24 10:24:43;;;;;;;;;;;17.60;49.30;;;;;;5110618;28;20007;-65
2022/03/24 10:27:11;;;;;;;;;;;17.60;49.30;;;;;;5093285;28;19973;-65
2022/03/24 10:29:38;;;;;;;;;;;17.60;49.30;;;;;;5092714;28;20420;-64
2022/03/24 10:32:05;;;;;;;;;;;17.60;49.20;;;;;;5092840;28;20381;-66
2022/03/24 10:34:32;;;;;;;;;;;17.60;49.30;;;;;;5092765;28;19971;-66
2022/03/24 10:36:59;;;;;;;;;;;17.60;49.30;;;;;;5097447;28;19978;-66
2022/03/24 10:39:25;;;;;;;;;;;17.60;49.30;;;;;;5102841;28;19930;-67
2022/03/24 10:41:53;;;;;;;;;;;17.60;49.50;;;;;;5103765;28;19953;-66
2022/03/24 10:44:21;;;;;;;;;;;17.70;49.70;;;;;;5092050;28;19990;-67
2022/03/24 10:46:48;;;;;;;;;;;17.70;49.50;;;;;;5092264;28;19985;-66
2022/03/24 10:49:16;;;;;;;;;;;17.70;49.50;;;;;;5092181;28;19924;-67
2022/03/24 10:51:43;;;;;;;;;;;17.70;49.40;;;;;;5092223;28;19924;-67
2022/03/24 10:54:11;;;;;;;;;;;17.70;49.30;;;;;;5091932;28;19924;-67
2022/03/24 10:56:39;;;;;;;;;;;17.80;49.40;;;;;;5099613;28;19931;-67
2022/03/24 10:59:07;;;;;;;;;;;17.80;49.40;;;;;;5091205;28;20342;-67
2022/03/24 11:01:34;;;;;;;;;;;17.80;49.30;;;;;;5095166;28;19931;-67
2022/03/24 11:04:00;;;;;;;;;;;17.80;49.20;;;;;;5102512;28;20402;-68
2022/03/24 11:06:28;;;;;;;;;;;17.80;49.40;;;;;;5099423;28;20376;-66
2022/03/24 11:08:55;;;;;;;;;;;17.80;49.40;;;;;;5099302;28;19936;-66
2022/03/24 11:11:22;;;;;;;;;;;17.80;49.40;;;;;;5101990;28;19928;-66
2022/03/24 11:13:51;;;;;;;;;;;17.90;49.30;;;;;;5103152;28;19923;-66
2022/03/24 11:16:19;;;;;;;;;;;17.90;49.20;;;;;;5102279;28;19970;-66
2022/03/24 11:18:46;;;;;;;;;;;17.90;49.20;;;;;;5100927;28;20408;-66
2022/03/24 11:21:14;;;;;;;;;;;17.90;49.20;;;;;;5102989;28;19924;-66
2022/03/24 11:23:40;;;;;;;;;;;17.90;49.20;;;;;;5102009;28;19930;-66
2022/03/24 11:26:08;;;;;;;;;;;17.90;49.20;;;;;;5107115;28;20022;-66
2022/03/24 11:28:35;;;;;;;;;;;17.90;49.10;;;;;;5105550;28;19928;-66
2022/03/24 11:31:05;;;;;;;;;;;18.00;49.20;;;;;;5105651;28;19924;-66
2022/03/24 11:33:37;;;;;;;;;;;18.00;49.20;;;;;;5095596;28;19932;-67
2022/03/24 11:36:04;;;;;;;;;;;17.90;49.10;;;;;;5095955;28;19924;-68
2022/03/24 11:38:30;;;;;;;;;;;17.90;49.10;;;;;;5096209;28;19930;-67
2022/03/24 11:41:00;;;;;;;;;;;18.00;49.20;;;;;;5096466;28;19924;-67
2022/03/24 11:43:27;;;;;;;;;;;18.00;49.30;;;;;;5095907;28;19925;-67
2022/03/24 11:45:56;;;;;;;;;;;18.00;49.20;;;;;;5096258;28;19939;-67
2022/03/24 11:48:31;;;;;;;;;;;18.00;49.20;;;;;;5095549;28;20407;-68
2022/03/24 11:50:59;;;;;;;;;;;18.00;49.20;;;;;;5096037;28;19931;-67
2022/03/24 11:53:36;;;;;;;;;;;18.00;49.20;;;;;;5095741;28;19931;-66
2022/03/24 11:56:16;;;;;;;;;;;18.00;49.20;;;;;;5095718;28;20411;-67
2022/03/24 11:59:00;;;;;;;;;;;18.00;49.20;;;;;;5095810;28;19934;-67
2022/03/24 12:01:28;;;;;;;;;;;18.00;49.20;;;;;;5088376;28;19930;-67
2022/03/24 12:04:01;;;;;;;;;;;18.00;49.20;;;;;;5094982;28;19930;-68
2022/03/24 12:06:53;;;;;;;;;;;18.00;49.20;;;;;;5102615;28;20347;-65
2022/03/24 12:09:22;;;;;;;;;;;18.10;49.30;;;;;;5080874;28;19956;-65
2022/03/24 12:11:50;;;;;;;;;;;18.00;49.20;;;;;;5095792;28;19928;-65
2022/03/24 12:14:18;;;;;;;;;;;18.20;49.30;;;;;;5095829;28;20007;-65
2022/03/24 12:16:45;;;;;;;;;;;18.00;49.20;;;;;;5095338;28;19966;-65
2022/03/24 12:19:30;;;;;;;;;;;18.00;49.20;;;;;;5094430;28;19973;-64
2022/03/24 12:21:57;;;;;;;;;;;18.00;49.20;;;;;;5095365;28;19924;-64
2022/03/24 12:24:25;;;;;;;;;;;18.10;49.30;;;;;;5092773;28;19928;-65
2022/03/24 12:27:07;;;;;;;;;;;18.10;49.40;;;;;;5094658;28;19933;-65
2022/03/24 12:29:33;;;;;;;;;;;18.10;49.50;;;;;;5094757;28;19928;-64
2022/03/24 12:32:05;;;;;;;;;;;18.10;49.60;;;;;;5094663;28;19928;-64
2022/03/24 12:34:44;;;;;;;;;;;18.10;49.70;;;;;;5102117;28;19924;-66
2022/03/24 12:37:34;;;;;;;;;;;18.10;49.60;;;;;;5093825;28;19935;-64
2022/03/24 12:40:37;;;;;;;;;;;18.10;49.40;;;;;;5089869;28;19924;-66
2022/03/24 12:43:17;;;;;;;;;;;18.10;49.50;;;;;;5064965;28;19999;-65
2022/03/24 12:51:58;;;;;;;;;;;18.20;49.50;;;;;;5074475;28;19923;-64
2022/03/24 12:54:26;;;;;;;;;;;18.20;49.50;;;;;;5114845;28;20014;-64
2022/03/24 12:56:52;;;;;;;;;;;18.20;49.50;;;;;;5114782;28;20318;-66
2022/03/24 12:59:20;;;;;;;;;;;18.20;49.50;;;;;;5099904;28;19939;-65
2022/03/24 13:01:47;;;;;;;;;;;18.20;49.50;;;;;;5102273;28;20429;-64
2022/03/24 13:04:14;;;;;;;;;;;18.30;49.60;;;;;;5104666;28;19928;-64
2022/03/24 13:06:41;;;;;;;;;;;18.30;49.50;;;;;;5105463;28;19931;-66
2022/03/24 13:09:17;;;;;;;;;;;18.30;49.60;;;;;;5105025;28;19924;-66
2022/03/24 13:11:51;;;;;;;;;;;18.30;49.60;;;;;;5109866;28;19970;-66
2022/03/24 13:14:19;;;;;;;;;;;18.30;49.50;;;;;;5103451;28;19930;-68
2022/03/24 13:16:59;;;;;;;;;;;18.30;49.50;;;;;;5102510;28;19927;-66
2022/03/24 13:19:26;;;;;;;;;;;18.30;49.50;;;;;;5092898;28;19941;-66
2022/03/24 13:21:52;;;;;;;;;;;18.30;49.50;;;;;;5093659;28;19924;-66
2022/03/24 13:24:20;;;;;;;;;;;18.20;49.40;;;;;;5093055;28;20272;-67
2022/03/24 13:26:56;;;;;;;;;;;18.30;49.50;;;;;;5092487;28;19928;-66
2022/03/24 13:29:23;;;;;;;;;;;18.20;49.50;;;;;;5093238;28;19928;-66
2022/03/24 13:31:50;;;;;;;;;;;18.20;49.50;;;;;;5093754;28;19939;-66
2022/03/24 13:34:18;;;;;;;;;;;18.20;49.50;;;;;;5104792;28;19924;-68
2022/03/24 13:36:44;;;;;;;;;;;18.20;49.50;;;;;;5097738;28;20019;-65
2022/03/24 13:39:11;;;;;;;;;;;18.20;49.50;;;;;;5114322;28;19940;-65
2022/03/24 13:41:38;;;;;;;;;;;18.20;49.50;;;;;;5114567;28;19938;-65
2022/03/24 13:44:04;;;;;;;;;;;18.20;49.50;;;;;;5114197;28;19924;-66
2022/03/24 13:46:31;;;;;;;;;;;18.20;49.50;;;;;;5113598;28;19930;-66
2022/03/24 13:48:57;;;;;;;;;;;18.20;49.50;;;;;;5114155;28;19930;-66
2022/03/24 13:51:27;;;;;;;;;;;18.20;50.00;;;;;;5104748;28;19925;-65
2022/03/24 13:53:54;;;;;;;;;;;18.20;49.50;;;;;;5105882;28;20003;-65
2022/03/24 13:56:20;;;;;;;;;;;18.20;49.50;;;;;;5093513;28;19924;-65
2022/03/24 13:58:47;;;;;;;;;;;18.20;49.50;;;;;;5093740;28;19924;-65
2022/03/24 14:01:14;;;;;;;;;;;18.20;49.50;;;;;;5092603;28;19971;-65
2022/03/24 14:03:41;;;;;;;;;;;18.20;49.40;;;;;;5092118;28;19964;-64
2022/03/24 14:06:12;;;;;;;;;;;18.20;49.40;;;;;;5093235;28;20411;-65
2022/03/24 14:08:42;;;;;;;;;;;18.10;49.40;;;;;;5094734;28;20023;-65
2022/03/24 14:11:11;;;;;;;;;;;18.10;49.40;;;;;;5093709;28;19966;-65
2022/03/24 14:13:38;;;;;;;;;;;18.10;49.50;;;;;;5092153;28;20320;-65
2022/03/24 14:16:09;;;;;;;;;;;18.10;49.50;;;;;;5093151;28;20010;-65
2022/03/24 14:18:36;;;;;;;;;;;18.10;49.60;;;;;;5093354;28;19928;-65
2022/03/24 14:21:03;;;;;;;;;;;18.00;49.60;;;;;;5093519;28;20347;-65
2022/03/24 14:23:30;;;;;;;;;;;18.00;49.60;;;;;;5093939;28;20397;-65
2022/03/24 14:26:02;;;;;;;;;;;18.00;49.60;;;;;;5093177;28;20015;-65